AAL1957 KCHS-KPHL
Flight info
| Callsign | AAL1957 |
|---|---|
| Flight time | 1h 24m |
| Altitude | 35000 |
| Route | PLMTO3 CRE DCT RAPZZ Q135 RREGG Q117 SAWED Q97 ZJAAY JIIMS4 |
| Aircraft | A319/M-SDE3FGHIRWY/LB1 |
Departure
| Time | 2026-04-20 03:20 |
|---|---|
| Airport | Charleston International Airport (KCHS) |
Arrival
| Time | 2026-04-20 04:44 |
|---|---|
| Airport | Philadelphia International Airport (KPHL) |
| Time | Latitude | Longitude | Altitude | Speed | Heading |
|---|---|---|---|---|---|
| 2026-04-20 02:11 | 32.88649 | -80.03774 | 4 ft | 0 kts | 198° |
| 2026-04-20 03:10 | 32.88665 | -80.03768 | 39 ft | 4 kts | 197° |
| 2026-04-20 03:10 | 32.88691 | -80.03759 | 40 ft | 4 kts | 193° |
| 2026-04-20 03:10 | 32.88718 | -80.03753 | 39 ft | 4 kts | 182° |
| 2026-04-20 03:11 | 32.88742 | -80.03757 | 41 ft | 4 kts | 135° |
| 2026-04-20 03:11 | 32.88747 | -80.03765 | 41 ft | 0 kts | 81° |
| 2026-04-20 03:16 | 32.88747 | -80.03764 | 41 ft | 0 kts | 81° |
| 2026-04-20 03:16 | 32.88751 | -80.03725 | 41 ft | 11 kts | 84° |
| 2026-04-20 03:16 | 32.88753 | -80.03670 | 41 ft | 0 kts | 92° |
| 2026-04-20 03:16 | 32.88753 | -80.03669 | 41 ft | 1 kts | 91° |
| 2026-04-20 03:17 | 32.88776 | -80.03642 | 39 ft | 11 kts | 21° |
| 2026-04-20 03:17 | 32.88892 | -80.03620 | 41 ft | 19 kts | 8° |
| 2026-04-20 03:17 | 32.89021 | -80.03582 | 41 ft | 19 kts | 40° |
| 2026-04-20 03:17 | 32.89105 | -80.03457 | 41 ft | 20 kts | 53° |
| 2026-04-20 03:18 | 32.89177 | -80.03333 | 41 ft | 10 kts | 57° |
| 2026-04-20 03:18 | 32.89184 | -80.03320 | 41 ft | 0 kts | 57° |
| 2026-04-20 03:18 | 32.89184 | -80.03319 | 41 ft | 1 kts | 57° |
| 2026-04-20 03:18 | 32.89204 | -80.03284 | 39 ft | 9 kts | 57° |
| 2026-04-20 03:19 | 32.89257 | -80.03263 | 40 ft | 10 kts | 323° |
| 2026-04-20 03:19 | 32.89296 | -80.03294 | 40 ft | 11 kts | 327° |
| 2026-04-20 03:19 | 32.89463 | -80.03420 | 39 ft | 63 kts | 327° |
| 2026-04-20 03:19 | 32.90026 | -80.03845 | 41 ft | 125 kts | 327° |
| 2026-04-20 03:20 | 32.91154 | -80.04673 | 585 ft | 144 kts | 330° |
| 2026-04-20 03:20 | 32.91723 | -80.05093 | 1065 ft | 140 kts | 333° |
| 2026-04-20 03:20 | 32.92639 | -80.05314 | 1647 ft | 140 kts | 19° |
| 2026-04-20 03:20 | 32.93428 | -80.04550 | 2118 ft | 161 kts | 50° |
| 2026-04-20 03:21 | 32.93840 | -80.03180 | 2447 ft | 191 kts | 71° |
| 2026-04-20 03:21 | 32.94190 | -80.01562 | 2812 ft | 211 kts | 70° |
| 2026-04-20 03:21 | 32.94595 | -79.99795 | 3312 ft | 229 kts | 70° |
| 2026-04-20 03:21 | 32.95043 | -79.97881 | 3865 ft | 250 kts | 70° |
| 2026-04-20 03:22 | 32.95521 | -79.95858 | 4723 ft | 257 kts | 70° |
| 2026-04-20 03:22 | 32.96009 | -79.93787 | 5648 ft | 262 kts | 71° |
| 2026-04-20 03:22 | 32.96510 | -79.91668 | 6508 ft | 270 kts | 71° |
| 2026-04-20 03:22 | 32.97030 | -79.89493 | 7315 ft | 277 kts | 71° |
| 2026-04-20 03:23 | 32.97568 | -79.87261 | 8128 ft | 284 kts | 71° |
| 2026-04-20 03:23 | 32.98118 | -79.84975 | 8950 ft | 290 kts | 72° |
| 2026-04-20 03:23 | 32.98675 | -79.82636 | 9772 ft | 297 kts | 72° |
| 2026-04-20 03:23 | 32.99249 | -79.80228 | 10359 ft | 312 kts | 72° |
| 2026-04-20 03:24 | 32.99868 | -79.77644 | 10666 ft | 336 kts | 72° |
| 2026-04-20 03:24 | 33.00522 | -79.74918 | 11244 ft | 347 kts | 72° |
| 2026-04-20 03:24 | 33.01351 | -79.72160 | 11952 ft | 352 kts | 62° |
| 2026-04-20 03:24 | 33.02592 | -79.69634 | 12674 ft | 356 kts | 53° |
| 2026-04-20 03:25 | 33.03956 | -79.67144 | 13395 ft | 361 kts | 53° |
| 2026-04-20 03:25 | 33.05336 | -79.64610 | 14108 ft | 367 kts | 53° |
| 2026-04-20 03:25 | 33.06730 | -79.62043 | 14751 ft | 372 kts | 53° |
| 2026-04-20 03:25 | 33.08149 | -79.59427 | 15399 ft | 378 kts | 53° |
| 2026-04-20 03:26 | 33.09585 | -79.56777 | 16037 ft | 383 kts | 54° |
| 2026-04-20 03:26 | 33.11034 | -79.54092 | 16675 ft | 387 kts | 54° |
| 2026-04-20 03:26 | 33.12502 | -79.51375 | 17315 ft | 392 kts | 54° |
| 2026-04-20 03:26 | 33.13992 | -79.48619 | 17951 ft | 397 kts | 55° |
| 2026-04-20 03:27 | 33.15496 | -79.45834 | 18567 ft | 402 kts | 55° |
| 2026-04-20 03:27 | 33.17021 | -79.43009 | 19102 ft | 407 kts | 55° |
| 2026-04-20 03:27 | 33.18566 | -79.40146 | 19654 ft | 411 kts | 54° |
| 2026-04-20 03:27 | 33.20272 | -79.37403 | 20194 ft | 413 kts | 45° |
| 2026-04-20 03:28 | 33.22335 | -79.35034 | 20734 ft | 413 kts | 36° |
| 2026-04-20 03:28 | 33.24526 | -79.32767 | 21262 ft | 419 kts | 36° |
| 2026-04-20 03:28 | 33.28964 | -79.28120 | 22321 ft | 429 kts | 36° |
| 2026-04-20 03:29 | 33.31211 | -79.25739 | 22851 ft | 433 kts | 36° |
| 2026-04-20 03:29 | 33.33472 | -79.23339 | 23380 ft | 437 kts | 36° |
| 2026-04-20 03:29 | 33.35764 | -79.20915 | 23889 ft | 442 kts | 36° |
| 2026-04-20 03:29 | 33.38082 | -79.18472 | 24310 ft | 446 kts | 36° |
| 2026-04-20 03:30 | 33.40419 | -79.16014 | 24727 ft | 450 kts | 35° |
| 2026-04-20 03:30 | 33.42776 | -79.13534 | 25132 ft | 454 kts | 35° |
| 2026-04-20 03:30 | 33.45153 | -79.11024 | 25530 ft | 457 kts | 35° |
| 2026-04-20 03:30 | 33.47548 | -79.08490 | 25962 ft | 461 kts | 35° |
| 2026-04-20 03:31 | 33.49961 | -79.05933 | 26350 ft | 465 kts | 35° |
| 2026-04-20 03:31 | 33.52398 | -79.03348 | 26745 ft | 469 kts | 36° |
| 2026-04-20 03:31 | 33.54877 | -79.00717 | 27149 ft | 472 kts | 36° |
| 2026-04-20 03:31 | 33.57349 | -78.98093 | 27534 ft | 475 kts | 36° |
| 2026-04-20 03:32 | 33.59830 | -78.95457 | 27913 ft | 479 kts | 36° |
| 2026-04-20 03:32 | 33.62335 | -78.92791 | 28285 ft | 483 kts | 36° |
| 2026-04-20 03:32 | 33.64857 | -78.90110 | 28660 ft | 486 kts | 36° |
| 2026-04-20 03:32 | 33.67397 | -78.87410 | 29020 ft | 490 kts | 35° |
| 2026-04-20 03:33 | 33.69954 | -78.84690 | 29385 ft | 493 kts | 35° |
| 2026-04-20 03:33 | 33.72533 | -78.81943 | 29769 ft | 498 kts | 35° |
| 2026-04-20 03:33 | 33.75136 | -78.79164 | 30062 ft | 502 kts | 35° |
| 2026-04-20 03:33 | 33.77751 | -78.76362 | 30376 ft | 506 kts | 35° |
| 2026-04-20 03:34 | 33.80458 | -78.73659 | 30686 ft | 503 kts | 28° |
| 2026-04-20 03:34 | 33.83394 | -78.71438 | 30986 ft | 496 kts | 19° |
| 2026-04-20 03:34 | 33.86496 | -78.69682 | 31289 ft | 493 kts | 15° |
| 2026-04-20 03:34 | 33.89637 | -78.68000 | 31566 ft | 495 kts | 15° |
| 2026-04-20 03:35 | 33.92794 | -78.66311 | 31832 ft | 498 kts | 15° |
| 2026-04-20 03:35 | 33.95967 | -78.64610 | 32162 ft | 500 kts | 16° |
| 2026-04-20 03:35 | 33.99147 | -78.62896 | 32580 ft | 500 kts | 16° |
| 2026-04-20 03:35 | 34.02317 | -78.61180 | 32970 ft | 499 kts | 16° |
| 2026-04-20 03:36 | 34.05477 | -78.59469 | 33377 ft | 499 kts | 16° |
| 2026-04-20 03:36 | 34.08647 | -78.57750 | 33796 ft | 498 kts | 16° |
| 2026-04-20 03:36 | 34.11801 | -78.56042 | 34198 ft | 498 kts | 16° |
| 2026-04-20 03:36 | 34.14956 | -78.54330 | 34555 ft | 497 kts | 16° |
| 2026-04-20 03:37 | 34.18111 | -78.52617 | 34919 ft | 496 kts | 16° |
| 2026-04-20 03:37 | 34.21265 | -78.50907 | 35204 ft | 496 kts | 15° |
| 2026-04-20 03:37 | 34.27161 | -78.46636 | 35221 ft | 501 kts | 34° |
| 2026-04-20 03:38 | 34.32427 | -78.41018 | 35219 ft | 501 kts | 35° |
| 2026-04-20 03:38 | 34.37606 | -78.35467 | 35212 ft | 501 kts | 35° |
| 2026-04-20 03:39 | 34.42864 | -78.29842 | 35214 ft | 501 kts | 35° |
| 2026-04-20 03:39 | 34.48077 | -78.24261 | 35216 ft | 500 kts | 35° |
| 2026-04-20 03:40 | 34.53289 | -78.18671 | 35219 ft | 500 kts | 35° |
| 2026-04-20 03:40 | 34.58489 | -78.13077 | 35223 ft | 500 kts | 35° |
| 2026-04-20 03:41 | 34.63689 | -78.07473 | 35231 ft | 500 kts | 35° |
| 2026-04-20 03:41 | 34.68888 | -78.01866 | 35272 ft | 500 kts | 35° |
| 2026-04-20 03:42 | 34.74078 | -77.96248 | 35259 ft | 500 kts | 35° |
| 2026-04-20 03:42 | 34.79259 | -77.90621 | 35221 ft | 500 kts | 36° |
| 2026-04-20 03:43 | 34.84451 | -77.84978 | 35217 ft | 500 kts | 36° |
| 2026-04-20 03:43 | 34.89663 | -77.79378 | 35267 ft | 500 kts | 34° |
| 2026-04-20 03:44 | 34.94961 | -77.73907 | 35256 ft | 499 kts | 33° |
| 2026-04-20 03:44 | 35.00286 | -77.68470 | 35243 ft | 499 kts | 34° |
| 2026-04-20 03:45 | 35.05577 | -77.63002 | 35236 ft | 499 kts | 34° |
| 2026-04-20 03:45 | 35.10858 | -77.57497 | 35189 ft | 499 kts | 35° |
| 2026-04-20 03:46 | 35.16420 | -77.52431 | 35226 ft | 492 kts | 24° |
| 2026-04-20 03:46 | 35.22270 | -77.48077 | 35222 ft | 492 kts | 24° |
| 2026-04-20 03:47 | 35.28119 | -77.43706 | 35223 ft | 493 kts | 24° |
| 2026-04-20 03:47 | 35.33976 | -77.39329 | 35221 ft | 493 kts | 24° |
| 2026-04-20 03:48 | 35.39843 | -77.34934 | 35224 ft | 494 kts | 24° |
| 2026-04-20 03:48 | 35.45698 | -77.30534 | 35221 ft | 494 kts | 24° |
| 2026-04-20 03:49 | 35.51554 | -77.26113 | 35224 ft | 494 kts | 25° |
| 2026-04-20 03:49 | 35.57410 | -77.21693 | 35259 ft | 495 kts | 25° |
| 2026-04-20 03:50 | 35.63312 | -77.17248 | 35249 ft | 499 kts | 25° |
| 2026-04-20 03:50 | 35.69232 | -77.12778 | 35240 ft | 499 kts | 25° |
| 2026-04-20 03:51 | 35.75144 | -77.08305 | 35235 ft | 499 kts | 25° |
| 2026-04-20 03:51 | 35.81063 | -77.03816 | 35270 ft | 499 kts | 25° |
| 2026-04-20 03:52 | 35.86975 | -76.99333 | 35266 ft | 498 kts | 25° |
| 2026-04-20 03:52 | 35.92885 | -76.94866 | 35254 ft | 497 kts | 24° |
| 2026-04-20 03:53 | 35.97919 | -76.91385 | 35246 ft | 494 kts | 21° |
| 2026-04-20 03:53 | 36.03992 | -76.87481 | 35267 ft | 493 kts | 20° |
| 2026-04-20 03:54 | 36.10072 | -76.83555 | 35193 ft | 493 kts | 21° |
| 2026-04-20 03:54 | 36.16137 | -76.79513 | 35199 ft | 497 kts | 22° |
| 2026-04-20 03:55 | 36.22231 | -76.75401 | 35204 ft | 500 kts | 22° |
| 2026-04-20 03:55 | 36.28345 | -76.71288 | 35244 ft | 501 kts | 22° |
| 2026-04-20 03:56 | 36.34475 | -76.67177 | 35233 ft | 501 kts | 22° |
| 2026-04-20 03:56 | 36.40598 | -76.63063 | 35225 ft | 501 kts | 22° |
| 2026-04-20 03:57 | 36.46726 | -76.58924 | 35224 ft | 501 kts | 22° |
| 2026-04-20 03:57 | 36.52832 | -76.54788 | 35216 ft | 498 kts | 22° |
| 2026-04-20 03:58 | 36.58915 | -76.50678 | 35233 ft | 497 kts | 22° |
| 2026-04-20 03:58 | 36.65088 | -76.46517 | 35231 ft | 505 kts | 22° |
| 2026-04-20 03:59 | 36.71275 | -76.42316 | 35258 ft | 507 kts | 22° |
| 2026-04-20 03:59 | 36.77467 | -76.38097 | 35251 ft | 507 kts | 22° |
| 2026-04-20 04:00 | 36.83647 | -76.33870 | 35240 ft | 507 kts | 22° |
| 2026-04-20 04:00 | 36.89821 | -76.29649 | 35228 ft | 507 kts | 22° |
| 2026-04-20 04:01 | 36.96009 | -76.25426 | 35224 ft | 504 kts | 22° |
| 2026-04-20 04:01 | 37.02146 | -76.21223 | 35212 ft | 502 kts | 22° |
| 2026-04-20 04:02 | 37.08272 | -76.17010 | 35202 ft | 503 kts | 22° |
| 2026-04-20 04:02 | 37.14404 | -76.12801 | 35212 ft | 504 kts | 22° |
| 2026-04-20 04:03 | 37.20569 | -76.08561 | 35188 ft | 507 kts | 23° |
| 2026-04-20 04:03 | 37.26759 | -76.04290 | 35194 ft | 509 kts | 23° |
| 2026-04-20 04:04 | 37.33009 | -75.99960 | 35200 ft | 510 kts | 23° |
| 2026-04-20 04:04 | 37.39235 | -75.95638 | 35247 ft | 511 kts | 23° |
| 2026-04-20 04:05 | 37.45456 | -75.91315 | 35238 ft | 511 kts | 23° |
| 2026-04-20 04:05 | 37.51678 | -75.86984 | 35229 ft | 511 kts | 23° |
| 2026-04-20 04:06 | 37.57865 | -75.82565 | 35219 ft | 512 kts | 25° |
| 2026-04-20 04:06 | 37.63975 | -75.77936 | 35174 ft | 513 kts | 26° |
| 2026-04-20 04:07 | 37.70092 | -75.73260 | 35182 ft | 515 kts | 26° |
| 2026-04-20 04:07 | 37.76257 | -75.68603 | 35189 ft | 517 kts | 26° |
| 2026-04-20 04:08 | 37.82453 | -75.63961 | 35223 ft | 518 kts | 25° |
| 2026-04-20 04:08 | 37.88585 | -75.59115 | 35223 ft | 521 kts | 30° |
| 2026-04-20 04:09 | 37.94532 | -75.53857 | 35223 ft | 522 kts | 32° |
| 2026-04-20 04:09 | 38.00439 | -75.48501 | 35232 ft | 522 kts | 31° |
| 2026-04-20 04:10 | 38.06496 | -75.43532 | 35202 ft | 512 kts | 20° |
| 2026-04-20 04:10 | 38.13039 | -75.39781 | 34913 ft | 516 kts | 18° |
| 2026-04-20 04:11 | 38.16310 | -75.37881 | 34381 ft | 516 kts | 19° |
| 2026-04-20 04:11 | 38.19566 | -75.35969 | 33871 ft | 516 kts | 19° |
| 2026-04-20 04:11 | 38.22806 | -75.34051 | 33424 ft | 513 kts | 19° |
| 2026-04-20 04:11 | 38.26031 | -75.32135 | 32983 ft | 509 kts | 19° |
| 2026-04-20 04:12 | 38.29233 | -75.30232 | 32559 ft | 505 kts | 19° |
| 2026-04-20 04:12 | 38.32406 | -75.28356 | 32144 ft | 501 kts | 18° |
| 2026-04-20 04:12 | 38.35559 | -75.26497 | 31742 ft | 497 kts | 18° |
| 2026-04-20 04:12 | 38.38687 | -75.24658 | 31341 ft | 494 kts | 18° |
| 2026-04-20 04:13 | 38.41803 | -75.22829 | 31022 ft | 490 kts | 18° |
| 2026-04-20 04:13 | 38.44892 | -75.21009 | 30581 ft | 489 kts | 18° |
| 2026-04-20 04:13 | 38.47969 | -75.19191 | 30164 ft | 487 kts | 18° |
| 2026-04-20 04:13 | 38.51035 | -75.17378 | 29732 ft | 483 kts | 18° |
| 2026-04-20 04:14 | 38.54075 | -75.15576 | 29336 ft | 479 kts | 18° |
| 2026-04-20 04:14 | 38.57123 | -75.13768 | 28958 ft | 475 kts | 18° |
| 2026-04-20 04:14 | 38.60059 | -75.11992 | 28596 ft | 472 kts | 19° |
| 2026-04-20 04:14 | 38.63030 | -75.10119 | 28288 ft | 469 kts | 19° |
| 2026-04-20 04:15 | 38.65936 | -75.08233 | 27880 ft | 466 kts | 20° |
| 2026-04-20 04:15 | 38.68815 | -75.06343 | 27510 ft | 463 kts | 20° |
| 2026-04-20 04:15 | 38.71660 | -75.04480 | 27112 ft | 459 kts | 21° |
| 2026-04-20 04:15 | 38.74495 | -75.02636 | 26747 ft | 455 kts | 20° |
| 2026-04-20 04:16 | 38.77317 | -75.00816 | 26387 ft | 451 kts | 20° |
| 2026-04-20 04:16 | 38.80110 | -74.99024 | 26036 ft | 447 kts | 20° |
| 2026-04-20 04:16 | 38.82857 | -74.97263 | 25755 ft | 443 kts | 20° |
| 2026-04-20 04:16 | 38.85631 | -74.95486 | 25373 ft | 440 kts | 19° |
| 2026-04-20 04:17 | 38.88354 | -74.93737 | 25012 ft | 437 kts | 19° |
| 2026-04-20 04:17 | 38.91056 | -74.91993 | 24662 ft | 433 kts | 19° |
| 2026-04-20 04:17 | 38.93737 | -74.90260 | 24312 ft | 429 kts | 19° |
| 2026-04-20 04:17 | 38.96386 | -74.88544 | 23969 ft | 425 kts | 19° |
| 2026-04-20 04:18 | 38.99012 | -74.86843 | 23594 ft | 421 kts | 19° |
| 2026-04-20 04:18 | 39.01619 | -74.85160 | 23177 ft | 418 kts | 19° |
| 2026-04-20 04:18 | 39.04230 | -74.83574 | 22794 ft | 410 kts | 12° |
| 2026-04-20 04:18 | 39.06900 | -74.82482 | 22372 ft | 397 kts | 2° |
| 2026-04-20 04:19 | 39.09576 | -74.81905 | 21966 ft | 384 kts | 353° |
| 2026-04-20 04:19 | 39.12207 | -74.81798 | 21564 ft | 371 kts | 345° |
| 2026-04-20 04:19 | 39.14728 | -74.82126 | 21169 ft | 358 kts | 337° |
| 2026-04-20 04:19 | 39.17110 | -74.82842 | 20776 ft | 346 kts | 330° |
| 2026-04-20 04:20 | 39.19415 | -74.83724 | 20385 ft | 344 kts | 330° |
| 2026-04-20 04:20 | 39.21709 | -74.84590 | 20006 ft | 343 kts | 330° |
| 2026-04-20 04:20 | 39.23993 | -74.85450 | 19634 ft | 341 kts | 330° |
| 2026-04-20 04:20 | 39.26268 | -74.86304 | 19329 ft | 340 kts | 330° |
| 2026-04-20 04:21 | 39.28529 | -74.87151 | 18974 ft | 338 kts | 330° |
| 2026-04-20 04:21 | 39.30782 | -74.87996 | 18619 ft | 336 kts | 330° |
| 2026-04-20 04:21 | 39.33023 | -74.88842 | 18242 ft | 335 kts | 330° |
| 2026-04-20 04:21 | 39.35252 | -74.89686 | 17890 ft | 332 kts | 330° |
| 2026-04-20 04:22 | 39.37456 | -74.90518 | 17552 ft | 329 kts | 331° |
| 2026-04-20 04:22 | 39.39668 | -74.91354 | 17239 ft | 325 kts | 331° |
| 2026-04-20 04:22 | 39.41802 | -74.92159 | 16944 ft | 322 kts | 331° |
| 2026-04-20 04:22 | 39.43975 | -74.92980 | 16621 ft | 319 kts | 331° |
| 2026-04-20 04:23 | 39.46095 | -74.93783 | 16320 ft | 316 kts | 331° |
| 2026-04-20 04:23 | 39.48190 | -74.94578 | 16027 ft | 313 kts | 331° |
| 2026-04-20 04:23 | 39.50268 | -74.95367 | 15781 ft | 309 kts | 331° |
| 2026-04-20 04:23 | 39.52318 | -74.96157 | 15510 ft | 303 kts | 329° |
| 2026-04-20 04:24 | 39.53584 | -74.96818 | 15320 ft | 293 kts | 322° |
| 2026-04-20 04:24 | 39.55304 | -74.98123 | 15029 ft | 280 kts | 313° |
| 2026-04-20 04:24 | 39.56871 | -74.99595 | 14725 ft | 277 kts | 313° |
| 2026-04-20 04:24 | 39.58426 | -75.01050 | 14439 ft | 275 kts | 313° |
| 2026-04-20 04:25 | 39.59970 | -75.02493 | 14152 ft | 273 kts | 313° |
| 2026-04-20 04:25 | 39.61502 | -75.03922 | 13853 ft | 270 kts | 314° |
| 2026-04-20 04:25 | 39.63027 | -75.05339 | 13518 ft | 268 kts | 314° |
| 2026-04-20 04:25 | 39.64539 | -75.06737 | 13204 ft | 267 kts | 318° |
| 2026-04-20 04:26 | 39.66214 | -75.07833 | 12882 ft | 274 kts | 332° |
| 2026-04-20 04:26 | 39.68100 | -75.08379 | 12541 ft | 283 kts | 346° |
| 2026-04-20 04:26 | 39.70096 | -75.08294 | 12204 ft | 292 kts | 360° |
| 2026-04-20 04:26 | 39.72086 | -75.07607 | 11880 ft | 300 kts | 13° |
| 2026-04-20 04:27 | 39.73984 | -75.06315 | 11553 ft | 308 kts | 26° |
| 2026-04-20 04:27 | 39.75608 | -75.04510 | 11183 ft | 317 kts | 40° |
| 2026-04-20 04:27 | 39.77107 | -75.02376 | 10855 ft | 314 kts | 40° |
| 2026-04-20 04:27 | 39.78569 | -75.00284 | 10568 ft | 311 kts | 40° |
| 2026-04-20 04:28 | 39.80015 | -74.98215 | 10282 ft | 307 kts | 40° |
| 2026-04-20 04:28 | 39.81439 | -74.96184 | 9988 ft | 303 kts | 40° |
| 2026-04-20 04:28 | 39.82761 | -74.94045 | 9632 ft | 305 kts | 50° |
| 2026-04-20 04:28 | 39.83764 | -74.91590 | 9270 ft | 309 kts | 62° |
| 2026-04-20 04:29 | 39.84409 | -74.88914 | 8906 ft | 310 kts | 70° |
| 2026-04-20 04:29 | 39.84957 | -74.86220 | 8537 ft | 307 kts | 70° |
| 2026-04-20 04:29 | 39.85504 | -74.83544 | 8166 ft | 305 kts | 70° |
| 2026-04-20 04:29 | 39.86053 | -74.80860 | 7794 ft | 302 kts | 71° |
| 2026-04-20 04:30 | 39.86214 | -74.78125 | 7429 ft | 306 kts | 96° |
| 2026-04-20 04:30 | 39.85650 | -74.75464 | 7058 ft | 305 kts | 108° |
| 2026-04-20 04:30 | 39.84945 | -74.72869 | 6684 ft | 303 kts | 109° |
| 2026-04-20 04:30 | 39.84229 | -74.70301 | 6289 ft | 300 kts | 109° |
| 2026-04-20 04:31 | 39.83462 | -74.67788 | 5897 ft | 298 kts | 118° |
| 2026-04-20 04:31 | 39.82212 | -74.65733 | 5544 ft | 293 kts | 141° |
| 2026-04-20 04:31 | 39.80456 | -74.64415 | 5153 ft | 285 kts | 165° |
| 2026-04-20 04:31 | 39.78537 | -74.64052 | 4735 ft | 276 kts | 187° |
| 2026-04-20 04:32 | 39.76703 | -74.64586 | 4318 ft | 266 kts | 208° |
| 2026-04-20 04:32 | 39.75180 | -74.65854 | 3900 ft | 256 kts | 228° |
| 2026-04-20 04:32 | 39.74103 | -74.67642 | 3469 ft | 249 kts | 246° |
| 2026-04-20 04:32 | 39.73538 | -74.69719 | 3058 ft | 241 kts | 264° |
| 2026-04-20 04:33 | 39.73505 | -74.71867 | 2998 ft | 238 kts | 281° |
| 2026-04-20 04:33 | 39.73963 | -74.73914 | 3002 ft | 237 kts | 297° |
| 2026-04-20 04:33 | 39.74878 | -74.75680 | 3003 ft | 236 kts | 312° |
| 2026-04-20 04:33 | 39.75991 | -74.77251 | 3005 ft | 237 kts | 313° |
| 2026-04-20 04:34 | 39.77102 | -74.78821 | 3001 ft | 232 kts | 312° |
| 2026-04-20 04:34 | 39.78148 | -74.80301 | 3001 ft | 214 kts | 312° |
| 2026-04-20 04:34 | 39.79111 | -74.81669 | 3003 ft | 198 kts | 312° |
| 2026-04-20 04:34 | 39.80023 | -74.82966 | 3006 ft | 193 kts | 312° |
| 2026-04-20 04:35 | 39.80924 | -74.84249 | 3007 ft | 192 kts | 312° |
| 2026-04-20 04:35 | 39.81822 | -74.85527 | 3008 ft | 192 kts | 312° |
| 2026-04-20 04:35 | 39.82722 | -74.86811 | 3009 ft | 192 kts | 312° |
| 2026-04-20 04:35 | 39.83610 | -74.88079 | 3004 ft | 181 kts | 312° |
| 2026-04-20 04:36 | 39.85257 | -74.90432 | 3008 ft | 173 kts | 312° |
| 2026-04-20 04:36 | 39.86065 | -74.91585 | 3009 ft | 172 kts | 312° |
| 2026-04-20 04:36 | 39.86871 | -74.92738 | 3010 ft | 172 kts | 312° |
| 2026-04-20 04:37 | 39.87679 | -74.93892 | 3010 ft | 172 kts | 312° |
| 2026-04-20 04:37 | 39.88486 | -74.95042 | 3010 ft | 172 kts | 312° |
| 2026-04-20 04:37 | 39.89291 | -74.96191 | 3011 ft | 171 kts | 312° |
| 2026-04-20 04:37 | 39.90059 | -74.97290 | 3003 ft | 157 kts | 312° |
| 2026-04-20 04:38 | 39.90759 | -74.98296 | 2995 ft | 142 kts | 311° |
| 2026-04-20 04:38 | 39.91229 | -74.99367 | 2997 ft | 134 kts | 291° |
| 2026-04-20 04:38 | 39.91285 | -75.00572 | 2999 ft | 136 kts | 260° |
| 2026-04-20 04:38 | 39.91066 | -75.01761 | 3001 ft | 133 kts | 268° |
| 2026-04-20 04:39 | 39.90891 | -75.02958 | 3008 ft | 134 kts | 264° |
| 2026-04-20 04:39 | 39.90686 | -75.04146 | 3006 ft | 135 kts | 263° |
| 2026-04-20 04:39 | 39.90467 | -75.05332 | 2948 ft | 135 kts | 263° |
| 2026-04-20 04:39 | 39.90244 | -75.06491 | 2824 ft | 129 kts | 262° |
| 2026-04-20 04:40 | 39.90027 | -75.07606 | 2662 ft | 126 kts | 262° |
| 2026-04-20 04:40 | 39.89810 | -75.08716 | 2498 ft | 125 kts | 262° |
| 2026-04-20 04:40 | 39.89598 | -75.09795 | 2333 ft | 124 kts | 262° |
| 2026-04-20 04:40 | 39.89382 | -75.10891 | 2162 ft | 124 kts | 262° |
| 2026-04-20 04:41 | 39.89168 | -75.11975 | 1994 ft | 123 kts | 262° |
| 2026-04-20 04:41 | 39.88954 | -75.13056 | 1818 ft | 123 kts | 262° |
| 2026-04-20 04:41 | 39.88741 | -75.14134 | 1650 ft | 123 kts | 262° |
| 2026-04-20 04:41 | 39.88528 | -75.15207 | 1480 ft | 122 kts | 261° |
| 2026-04-20 04:42 | 39.88316 | -75.16279 | 1310 ft | 122 kts | 261° |
| 2026-04-20 04:42 | 39.88102 | -75.17353 | 1140 ft | 122 kts | 260° |
| 2026-04-20 04:42 | 39.87889 | -75.18427 | 963 ft | 123 kts | 259° |
| 2026-04-20 04:42 | 39.87674 | -75.19510 | 780 ft | 125 kts | 257° |
| 2026-04-20 04:43 | 39.87455 | -75.20613 | 620 ft | 126 kts | 257° |
| 2026-04-20 04:43 | 39.87226 | -75.21716 | 446 ft | 127 kts | 257° |
| 2026-04-20 04:43 | 39.87014 | -75.22833 | 274 ft | 128 kts | 258° |
| 2026-04-20 04:43 | 39.86796 | -75.23958 | 99 ft | 128 kts | 256° |
| 2026-04-20 04:44 | 39.86582 | -75.25018 | 28 ft | 108 kts | 256° |
| 2026-04-20 04:44 | 39.86435 | -75.25752 | 28 ft | 59 kts | 255° |
| 2026-04-20 04:44 | 39.86356 | -75.26169 | 26 ft | 40 kts | 258° |
| 2026-04-20 04:44 | 39.86362 | -75.26500 | 28 ft | 25 kts | 291° |
| 2026-04-20 04:45 | 39.86389 | -75.26594 | 26 ft | 9 kts | 302° |
| 2026-04-20 04:45 | 39.86454 | -75.26611 | 27 ft | 10 kts | 348° |
| 2026-04-20 04:45 | 39.86531 | -75.26636 | 26 ft | 12 kts | 345° |
| 2026-04-20 04:45 | 39.86621 | -75.26665 | 28 ft | 14 kts | 348° |
| 2026-04-20 04:46 | 39.86722 | -75.26696 | 28 ft | 16 kts | 346° |
| 2026-04-20 04:46 | 39.86833 | -75.26731 | 29 ft | 17 kts | 0° |
| 2026-04-20 04:46 | 39.86883 | -75.26609 | 26 ft | 17 kts | 77° |
| 2026-04-20 04:46 | 39.86913 | -75.26454 | 26 ft | 18 kts | 76° |
| 2026-04-20 04:47 | 39.86946 | -75.26286 | 28 ft | 20 kts | 75° |
| 2026-04-20 04:47 | 39.86980 | -75.26106 | 25 ft | 21 kts | 76° |
| 2026-04-20 04:47 | 39.87017 | -75.25914 | 29 ft | 22 kts | 75° |
| 2026-04-20 04:47 | 39.87039 | -75.25711 | 25 ft | 23 kts | 78° |
| 2026-04-20 04:48 | 39.87073 | -75.25506 | 29 ft | 24 kts | 87° |
| 2026-04-20 04:48 | 39.87109 | -75.25294 | 25 ft | 24 kts | 77° |
| 2026-04-20 04:48 | 39.87153 | -75.25076 | 25 ft | 25 kts | 75° |
| 2026-04-20 04:48 | 39.87198 | -75.24850 | 25 ft | 26 kts | 76° |
| 2026-04-20 04:49 | 39.87244 | -75.24616 | 25 ft | 27 kts | 75° |
| 2026-04-20 04:49 | 39.87292 | -75.24376 | 29 ft | 28 kts | 76° |
| 2026-04-20 04:49 | 39.87365 | -75.24220 | 25 ft | 11 kts | 353° |
| 2026-04-20 04:49 | 39.87415 | -75.24237 | 28 ft | 8 kts | 0° |
| 2026-04-20 04:50 | 39.87480 | -75.24248 | 27 ft | 10 kts | 345° |
| 2026-04-20 04:50 | 39.87534 | -75.24248 | 25 ft | 5 kts | 64° |
| 2026-04-20 04:50 | 39.87538 | -75.24219 | 25 ft | 0 kts | 88° |
| 2026-04-20 04:50 | 39.87539 | -75.24203 | 25 ft | 2 kts | 86° |
| 2026-04-20 04:51 | 39.87539 | -75.24195 | 25 ft | 0 kts | 86° |